sensor_id;sensor_type;location;lat;lon;timestamp;P1;durP1;ratioP1;P2;durP2;ratioP2
5125;SDS011;63008;53.112;8.896;2023-04-28T00:01:10;16.90;;;13.03;;
5125;SDS011;63008;53.112;8.896;2023-04-28T00:03:11;22.70;;;14.13;;
5125;SDS011;63008;53.112;8.896;2023-04-28T00:05:12;22.87;;;13.07;;
5125;SDS011;63008;53.112;8.896;2023-04-28T00:07:13;28.43;;;13.80;;
5125;SDS011;63008;53.112;8.896;2023-04-28T00:09:14;18.57;;;12.83;;
5125;SDS011;63008;53.112;8.896;2023-04-28T00:11:15;20.90;;;12.17;;
5125;SDS011;63008;53.112;8.896;2023-04-28T00:13:16;17.13;;;14.00;;
5125;SDS011;63008;53.112;8.896;2023-04-28T00:15:17;23.00;;;14.10;;
5125;SDS011;63008;53.112;8.896;2023-04-28T00:17:18;19.43;;;13.30;;
5125;SDS011;63008;53.112;8.896;2023-04-28T00:19:19;21.50;;;14.50;;
5125;SDS011;63008;53.112;8.896;2023-04-28T00:21:20;22.27;;;15.00;;
5125;SDS011;63008;53.112;8.896;2023-04-28T00:23:21;20.50;;;13.33;;
5125;SDS011;63008;53.112;8.896;2023-04-28T00:25:22;20.90;;;14.40;;
5125;SDS011;63008;53.112;8.896;2023-04-28T00:27:23;20.40;;;14.67;;
5125;SDS011;63008;53.112;8.896;2023-04-28T00:29:24;19.63;;;13.93;;
5125;SDS011;63008;53.112;8.896;2023-04-28T00:31:25;18.53;;;13.23;;
5125;SDS011;63008;53.112;8.896;2023-04-28T00:33:26;18.20;;;13.07;;
5125;SDS011;63008;53.112;8.896;2023-04-28T00:35:27;21.77;;;15.70;;
5125;SDS011;63008;53.112;8.896;2023-04-28T00:37:28;21.63;;;14.53;;
5125;SDS011;63008;53.112;8.896;2023-04-28T00:39:29;23.70;;;14.80;;
5125;SDS011;63008;53.112;8.896;2023-04-28T00:41:30;19.40;;;13.83;;
5125;SDS011;63008;53.112;8.896;2023-04-28T00:43:39;20.10;;;14.10;;
5125;SDS011;63008;53.112;8.896;2023-04-28T00:45:44;20.23;;;15.33;;
5125;SDS011;63008;53.112;8.896;2023-04-28T00:47:45;23.60;;;14.97;;
5125;SDS011;63008;53.112;8.896;2023-04-28T00:49:46;29.80;;;16.17;;
5125;SDS011;63008;53.112;8.896;2023-04-28T00:51:49;22.87;;;15.03;;
5125;SDS011;63008;53.112;8.896;2023-04-28T00:53:50;21.37;;;15.77;;
5125;SDS011;63008;53.112;8.896;2023-04-28T00:55:51;22.60;;;15.57;;
5125;SDS011;63008;53.112;8.896;2023-04-28T00:57:54;20.90;;;14.50;;
5125;SDS011;63008;53.112;8.896;2023-04-28T00:59:55;23.37;;;16.73;;
5125;SDS011;63008;53.112;8.896;2023-04-28T01:01:57;28.70;;;14.90;;
5125;SDS011;63008;53.112;8.896;2023-04-28T01:03:59;25.23;;;16.27;;
5125;SDS011;63008;53.112;8.896;2023-04-28T01:06:00;25.40;;;16.47;;
5125;SDS011;63008;53.112;8.896;2023-04-28T01:08:02;23.67;;;16.73;;
5125;SDS011;63008;53.112;8.896;2023-04-28T01:10:03;24.33;;;16.20;;
5125;SDS011;63008;53.112;8.896;2023-04-28T01:12:04;25.27;;;16.20;;
5125;SDS011;63008;53.112;8.896;2023-04-28T01:14:05;24.80;;;16.10;;
5125;SDS011;63008;53.112;8.896;2023-04-28T01:16:06;22.43;;;15.60;;
5125;SDS011;63008;53.112;8.896;2023-04-28T01:18:07;28.60;;;16.00;;
5125;SDS011;63008;53.112;8.896;2023-04-28T01:20:08;24.53;;;16.60;;
5125;SDS011;63008;53.112;8.896;2023-04-28T01:22:10;21.83;;;14.73;;
5125;SDS011;63008;53.112;8.896;2023-04-28T01:24:14;20.00;;;15.43;;
5125;SDS011;63008;53.112;8.896;2023-04-28T01:26:16;21.83;;;15.73;;
5125;SDS011;63008;53.112;8.896;2023-04-28T01:28:17;22.20;;;14.80;;
5125;SDS011;63008;53.112;8.896;2023-04-28T01:30:17;23.53;;;15.00;;
5125;SDS011;63008;53.112;8.896;2023-04-28T01:32:18;21.17;;;15.10;;
5125;SDS011;63008;53.112;8.896;2023-04-28T01:34:19;22.67;;;15.83;;
5125;SDS011;63008;53.112;8.896;2023-04-28T01:36:20;25.20;;;15.07;;
5125;SDS011;63008;53.112;8.896;2023-04-28T01:38:23;20.60;;;13.70;;
5125;SDS011;63008;53.112;8.896;2023-04-28T01:40:24;27.93;;;15.50;;
5125;SDS011;63008;53.112;8.896;2023-04-28T01:42:25;23.77;;;14.23;;
5125;SDS011;63008;53.112;8.896;2023-04-28T01:44:26;24.20;;;15.60;;
5125;SDS011;63008;53.112;8.896;2023-04-28T01:46:27;19.17;;;13.57;;
5125;SDS011;63008;53.112;8.896;2023-04-28T01:48:28;21.80;;;15.33;;
5125;SDS011;63008;53.112;8.896;2023-04-28T01:50:29;25.70;;;15.97;;
5125;SDS011;63008;53.112;8.896;2023-04-28T01:52:30;21.57;;;14.70;;
5125;SDS011;63008;53.112;8.896;2023-04-28T01:54:31;22.13;;;16.33;;
5125;SDS011;63008;53.112;8.896;2023-04-28T01:56:32;22.73;;;13.83;;
5125;SDS011;63008;53.112;8.896;2023-04-28T01:58:33;21.47;;;15.27;;
5125;SDS011;63008;53.112;8.896;2023-04-28T02:00:34;21.47;;;14.80;;
5125;SDS011;63008;53.112;8.896;2023-04-28T02:02:35;20.00;;;14.63;;
5125;SDS011;63008;53.112;8.896;2023-04-28T02:04:36;18.53;;;13.13;;
5125;SDS011;63008;53.112;8.896;2023-04-28T02:06:38;21.43;;;15.20;;
5125;SDS011;63008;53.112;8.896;2023-04-28T02:08:39;23.87;;;15.00;;
5125;SDS011;63008;53.112;8.896;2023-04-28T02:10:40;20.63;;;14.87;;
5125;SDS011;63008;53.112;8.896;2023-04-28T02:12:41;24.43;;;14.27;;
5125;SDS011;63008;53.112;8.896;2023-04-28T02:14:42;18.53;;;14.13;;
5125;SDS011;63008;53.112;8.896;2023-04-28T02:16:43;19.70;;;14.80;;
5125;SDS011;63008;53.112;8.896;2023-04-28T02:18:44;20.17;;;13.53;;
5125;SDS011;63008;53.112;8.896;2023-04-28T02:20:45;19.80;;;14.30;;
5125;SDS011;63008;53.112;8.896;2023-04-28T02:22:46;18.73;;;13.70;;
5125;SDS011;63008;53.112;8.896;2023-04-28T02:24:47;20.97;;;14.47;;
5125;SDS011;63008;53.112;8.896;2023-04-28T02:26:48;21.03;;;14.77;;
5125;SDS011;63008;53.112;8.896;2023-04-28T02:28:49;17.70;;;13.50;;
5125;SDS011;63008;53.112;8.896;2023-04-28T02:30:49;15.60;;;12.53;;
5125;SDS011;63008;53.112;8.896;2023-04-28T02:32:50;23.43;;;13.30;;
5125;SDS011;63008;53.112;8.896;2023-04-28T02:34:52;22.60;;;12.63;;
5125;SDS011;63008;53.112;8.896;2023-04-28T02:36:54;23.70;;;14.77;;
5125;SDS011;63008;53.112;8.896;2023-04-28T02:38:55;18.53;;;12.83;;
5125;SDS011;63008;53.112;8.896;2023-04-28T02:40:57;18.77;;;13.27;;
5125;SDS011;63008;53.112;8.896;2023-04-28T02:43:04;19.00;;;13.40;;
5125;SDS011;63008;53.112;8.896;2023-04-28T02:45:05;16.40;;;12.10;;
5125;SDS011;63008;53.112;8.896;2023-04-28T02:47:06;17.73;;;12.87;;
5125;SDS011;63008;53.112;8.896;2023-04-28T02:49:07;21.50;;;14.33;;
5125;SDS011;63008;53.112;8.896;2023-04-28T02:51:08;18.13;;;13.30;;
5125;SDS011;63008;53.112;8.896;2023-04-28T02:53:09;24.57;;;14.07;;
5125;SDS011;63008;53.112;8.896;2023-04-28T02:55:10;18.43;;;12.47;;
5125;SDS011;63008;53.112;8.896;2023-04-28T02:57:11;20.23;;;12.40;;
5125;SDS011;63008;53.112;8.896;2023-04-28T02:59:12;15.57;;;12.07;;
5125;SDS011;63008;53.112;8.896;2023-04-28T03:01:13;18.13;;;12.37;;
5125;SDS011;63008;53.112;8.896;2023-04-28T03:03:14;17.07;;;11.60;;
5125;SDS011;63008;53.112;8.896;2023-04-28T03:05:15;15.80;;;12.57;;
5125;SDS011;63008;53.112;8.896;2023-04-28T03:07:16;14.07;;;11.60;;
5125;SDS011;63008;53.112;8.896;2023-04-28T03:09:17;14.93;;;10.90;;
5125;SDS011;63008;53.112;8.896;2023-04-28T03:11:18;14.93;;;11.10;;
5125;SDS011;63008;53.112;8.896;2023-04-28T03:13:19;15.87;;;11.83;;
5125;SDS011;63008;53.112;8.896;2023-04-28T03:15:20;18.87;;;12.77;;
5125;SDS011;63008;53.112;8.896;2023-04-28T03:17:21;15.50;;;11.83;;
5125;SDS011;63008;53.112;8.896;2023-04-28T03:19:22;18.97;;;12.07;;
5125;SDS011;63008;53.112;8.896;2023-04-28T03:21:23;15.03;;;12.00;;
5125;SDS011;63008;53.112;8.896;2023-04-28T03:23:26;18.63;;;11.40;;
5125;SDS011;63008;53.112;8.896;2023-04-28T03:25:27;20.70;;;11.00;;
5125;SDS011;63008;53.112;8.896;2023-04-28T03:27:28;19.93;;;12.27;;
5125;SDS011;63008;53.112;8.896;2023-04-28T03:29:29;13.07;;;11.07;;
5125;SDS011;63008;53.112;8.896;2023-04-28T03:31:30;19.33;;;11.13;;
5125;SDS011;63008;53.112;8.896;2023-04-28T03:33:31;13.47;;;10.77;;
5125;SDS011;63008;53.112;8.896;2023-04-28T03:35:32;14.10;;;11.00;;
5125;SDS011;63008;53.112;8.896;2023-04-28T03:37:33;19.70;;;11.80;;
5125;SDS011;63008;53.112;8.896;2023-04-28T03:39:34;17.80;;;10.90;;
5125;SDS011;63008;53.112;8.896;2023-04-28T03:41:35;13.07;;;10.67;;
5125;SDS011;63008;53.112;8.896;2023-04-28T03:43:36;16.60;;;11.03;;
5125;SDS011;63008;53.112;8.896;2023-04-28T03:45:37;14.20;;;10.70;;
5125;SDS011;63008;53.112;8.896;2023-04-28T03:47:39;14.83;;;10.10;;
5125;SDS011;63008;53.112;8.896;2023-04-28T03:49:40;13.30;;;11.07;;
5125;SDS011;63008;53.112;8.896;2023-04-28T03:51:41;15.03;;;9.67;;
5125;SDS011;63008;53.112;8.896;2023-04-28T03:53:42;13.23;;;10.50;;
5125;SDS011;63008;53.112;8.896;2023-04-28T03:55:43;12.67;;;9.90;;
5125;SDS011;63008;53.112;8.896;2023-04-28T03:57:44;12.87;;;10.37;;
5125;SDS011;63008;53.112;8.896;2023-04-28T03:59:45;15.33;;;9.60;;
5125;SDS011;63008;53.112;8.896;2023-04-28T04:01:46;20.33;;;11.50;;
5125;SDS011;63008;53.112;8.896;2023-04-28T04:03:47;13.10;;;9.10;;
5125;SDS011;63008;53.112;8.896;2023-04-28T04:05:48;12.80;;;9.57;;
5125;SDS011;63008;53.112;8.896;2023-04-28T04:07:49;11.30;;;9.17;;
5125;SDS011;63008;53.112;8.896;2023-04-28T04:09:50;11.43;;;10.03;;
5125;SDS011;63008;53.112;8.896;2023-04-28T04:11:51;12.47;;;9.00;;
5125;SDS011;63008;53.112;8.896;2023-04-28T04:13:52;15.47;;;9.93;;
5125;SDS011;63008;53.112;8.896;2023-04-28T04:15:52;10.23;;;9.10;;
5125;SDS011;63008;53.112;8.896;2023-04-28T04:17:53;16.97;;;8.73;;
5125;SDS011;63008;53.112;8.896;2023-04-28T04:19:55;12.93;;;9.90;;
5125;SDS011;63008;53.112;8.896;2023-04-28T04:21:56;9.30;;;8.07;;
5125;SDS011;63008;53.112;8.896;2023-04-28T04:23:56;17.83;;;8.90;;
5125;SDS011;63008;53.112;8.896;2023-04-28T04:25:57;14.67;;;9.50;;
5125;SDS011;63008;53.112;8.896;2023-04-28T04:27:58;8.63;;;7.73;;
5125;SDS011;63008;53.112;8.896;2023-04-28T04:29:59;12.73;;;7.80;;
5125;SDS011;63008;53.112;8.896;2023-04-28T04:32:00;12.10;;;8.77;;
5125;SDS011;63008;53.112;8.896;2023-04-28T04:34:01;15.70;;;7.80;;
5125;SDS011;63008;53.112;8.896;2023-04-28T04:36:03;9.97;;;6.50;;
5125;SDS011;63008;53.112;8.896;2023-04-28T04:38:04;15.20;;;7.93;;
5125;SDS011;63008;53.112;8.896;2023-04-28T04:40:07;9.97;;;6.70;;
5125;SDS011;63008;53.112;8.896;2023-04-28T04:42:08;10.13;;;7.67;;
5125;SDS011;63008;53.112;8.896;2023-04-28T04:44:09;10.10;;;7.17;;
5125;SDS011;63008;53.112;8.896;2023-04-28T04:46:10;7.37;;;6.53;;
5125;SDS011;63008;53.112;8.896;2023-04-28T04:48:11;10.57;;;7.60;;
5125;SDS011;63008;53.112;8.896;2023-04-28T04:50:12;9.40;;;6.07;;
5125;SDS011;63008;53.112;8.896;2023-04-28T04:52:13;6.07;;;5.40;;
5125;SDS011;63008;53.112;8.896;2023-04-28T04:54:14;14.03;;;5.93;;
5125;SDS011;63008;53.112;8.896;2023-04-28T04:56:15;6.27;;;5.67;;
5125;SDS011;63008;53.112;8.896;2023-04-28T04:58:16;7.70;;;5.70;;
5125;SDS011;63008;53.112;8.896;2023-04-28T05:00:17;8.10;;;6.07;;
5125;SDS011;63008;53.112;8.896;2023-04-28T05:02:19;14.23;;;6.93;;
5125;SDS011;63008;53.112;8.896;2023-04-28T05:04:22;6.57;;;5.97;;
5125;SDS011;63008;53.112;8.896;2023-04-28T05:06:23;7.57;;;5.60;;
5125;SDS011;63008;53.112;8.896;2023-04-28T05:08:24;10.90;;;6.63;;
5125;SDS011;63008;53.112;8.896;2023-04-28T05:10:25;13.23;;;6.43;;
5125;SDS011;63008;53.112;8.896;2023-04-28T05:12:26;10.27;;;6.50;;
5125;SDS011;63008;53.112;8.896;2023-04-28T05:14:27;8.47;;;6.00;;
5125;SDS011;63008;53.112;8.896;2023-04-28T05:16:28;7.70;;;5.77;;
5125;SDS011;63008;53.112;8.896;2023-04-28T05:18:29;9.67;;;5.50;;
5125;SDS011;63008;53.112;8.896;2023-04-28T05:20:30;5.60;;;5.10;;
5125;SDS011;63008;53.112;8.896;2023-04-28T05:22:31;8.60;;;6.27;;
5125;SDS011;63008;53.112;8.896;2023-04-28T05:24:32;7.97;;;5.07;;
5125;SDS011;63008;53.112;8.896;2023-04-28T05:26:34;9.83;;;5.30;;
5125;SDS011;63008;53.112;8.896;2023-04-28T05:28:35;10.00;;;5.87;;
5125;SDS011;63008;53.112;8.896;2023-04-28T05:30:36;9.60;;;4.60;;
5125;SDS011;63008;53.112;8.896;2023-04-28T05:32:37;6.40;;;4.73;;
5125;SDS011;63008;53.112;8.896;2023-04-28T05:34:38;7.10;;;5.20;;
5125;SDS011;63008;53.112;8.896;2023-04-28T05:36:39;5.40;;;4.20;;
5125;SDS011;63008;53.112;8.896;2023-04-28T05:38:41;6.67;;;5.27;;
5125;SDS011;63008;53.112;8.896;2023-04-28T05:40:43;7.50;;;5.30;;
5125;SDS011;63008;53.112;8.896;2023-04-28T05:42:44;11.27;;;5.17;;
5125;SDS011;63008;53.112;8.896;2023-04-28T05:44:45;5.90;;;5.30;;
5125;SDS011;63008;53.112;8.896;2023-04-28T05:46:46;5.00;;;4.33;;
5125;SDS011;63008;53.112;8.896;2023-04-28T05:48:47;5.13;;;4.70;;
5125;SDS011;63008;53.112;8.896;2023-04-28T05:50:48;7.80;;;4.80;;
5125;SDS011;63008;53.112;8.896;2023-04-28T05:52:49;5.97;;;4.03;;
5125;SDS011;63008;53.112;8.896;2023-04-28T05:54:50;8.10;;;5.10;;
5125;SDS011;63008;53.112;8.896;2023-04-28T05:56:50;12.87;;;5.20;;
5125;SDS011;63008;53.112;8.896;2023-04-28T05:58:51;4.90;;;4.50;;
5125;SDS011;63008;53.112;8.896;2023-04-28T06:00:52;3.93;;;3.63;;
5125;SDS011;63008;53.112;8.896;2023-04-28T06:02:54;4.83;;;4.37;;
5125;SDS011;63008;53.112;8.896;2023-04-28T06:04:55;5.07;;;4.33;;
5125;SDS011;63008;53.112;8.896;2023-04-28T06:06:56;7.00;;;4.43;;
5125;SDS011;63008;53.112;8.896;2023-04-28T06:09:00;4.57;;;4.20;;
5125;SDS011;63008;53.112;8.896;2023-04-28T06:11:02;8.83;;;4.67;;
5125;SDS011;63008;53.112;8.896;2023-04-28T06:13:03;5.17;;;4.10;;
5125;SDS011;63008;53.112;8.896;2023-04-28T06:15:06;6.57;;;4.97;;
5125;SDS011;63008;53.112;8.896;2023-04-28T06:17:07;4.30;;;3.90;;
5125;SDS011;63008;53.112;8.896;2023-04-28T06:19:08;6.30;;;3.80;;
5125;SDS011;63008;53.112;8.896;2023-04-28T06:21:09;7.50;;;4.20;;
5125;SDS011;63008;53.112;8.896;2023-04-28T06:23:10;4.43;;;4.03;;
5125;SDS011;63008;53.112;8.896;2023-04-28T06:25:11;7.60;;;4.37;;
5125;SDS011;63008;53.112;8.896;2023-04-28T06:27:12;7.10;;;4.57;;
5125;SDS011;63008;53.112;8.896;2023-04-28T06:29:13;7.40;;;3.97;;
5125;SDS011;63008;53.112;8.896;2023-04-28T06:31:14;4.07;;;3.70;;
5125;SDS011;63008;53.112;8.896;2023-04-28T06:33:15;5.87;;;3.60;;
5125;SDS011;63008;53.112;8.896;2023-04-28T06:35:16;5.60;;;3.90;;
5125;SDS011;63008;53.112;8.896;2023-04-28T06:37:17;5.00;;;3.60;;
5125;SDS011;63008;53.112;8.896;2023-04-28T06:39:18;3.73;;;3.47;;
5125;SDS011;63008;53.112;8.896;2023-04-28T06:41:19;7.10;;;3.83;;
5125;SDS011;63008;53.112;8.896;2023-04-28T06:43:20;4.43;;;3.93;;
5125;SDS011;63008;53.112;8.896;2023-04-28T06:45:21;4.80;;;3.77;;
5125;SDS011;63008;53.112;8.896;2023-04-28T06:47:22;6.37;;;4.10;;
5125;SDS011;63008;53.112;8.896;2023-04-28T06:49:23;5.90;;;3.50;;
5125;SDS011;63008;53.112;8.896;2023-04-28T06:51:24;5.80;;;4.03;;
5125;SDS011;63008;53.112;8.896;2023-04-28T06:53:26;6.27;;;3.97;;
5125;SDS011;63008;53.112;8.896;2023-04-28T06:55:27;4.00;;;3.67;;
5125;SDS011;63008;53.112;8.896;2023-04-28T06:57:28;7.00;;;3.53;;
5125;SDS011;63008;53.112;8.896;2023-04-28T06:59:29;6.00;;;4.20;;
5125;SDS011;63008;53.112;8.896;2023-04-28T07:01:30;4.00;;;3.60;;
5125;SDS011;63008;53.112;8.896;2023-04-28T07:03:31;7.60;;;4.00;;
5125;SDS011;63008;53.112;8.896;2023-04-28T07:05:32;3.47;;;2.97;;
5125;SDS011;63008;53.112;8.896;2023-04-28T07:07:33;5.03;;;3.63;;
5125;SDS011;63008;53.112;8.896;2023-04-28T07:09:35;4.13;;;3.47;;
5125;SDS011;63008;53.112;8.896;2023-04-28T07:11:36;5.33;;;4.00;;
5125;SDS011;63008;53.112;8.896;2023-04-28T07:13:37;14.77;;;5.83;;
5125;SDS011;63008;53.112;8.896;2023-04-28T07:15:38;4.87;;;3.80;;
5125;SDS011;63008;53.112;8.896;2023-04-28T07:17:39;15.67;;;3.80;;
5125;SDS011;63008;53.112;8.896;2023-04-28T07:19:40;5.83;;;3.90;;
5125;SDS011;63008;53.112;8.896;2023-04-28T07:21:41;10.20;;;4.17;;
5125;SDS011;63008;53.112;8.896;2023-04-28T07:23:42;6.17;;;4.07;;
5125;SDS011;63008;53.112;8.896;2023-04-28T07:25:43;7.23;;;3.90;;
5125;SDS011;63008;53.112;8.896;2023-04-28T07:27:44;5.70;;;3.70;;
5125;SDS011;63008;53.112;8.896;2023-04-28T07:29:46;7.10;;;3.80;;
5125;SDS011;63008;53.112;8.896;2023-04-28T07:31:47;6.60;;;3.40;;
5125;SDS011;63008;53.112;8.896;2023-04-28T07:33:48;9.53;;;4.03;;
5125;SDS011;63008;53.112;8.896;2023-04-28T07:35:49;5.83;;;4.17;;
5125;SDS011;63008;53.112;8.896;2023-04-28T07:37:52;4.70;;;4.00;;
5125;SDS011;63008;53.112;8.896;2023-04-28T07:39:53;5.07;;;3.60;;
5125;SDS011;63008;53.112;8.896;2023-04-28T07:41:54;6.47;;;3.77;;
5125;SDS011;63008;53.112;8.896;2023-04-28T07:43:55;5.53;;;4.20;;
5125;SDS011;63008;53.112;8.896;2023-04-28T07:45:57;4.50;;;3.70;;
5125;SDS011;63008;53.112;8.896;2023-04-28T07:47:58;8.53;;;3.73;;
5125;SDS011;63008;53.112;8.896;2023-04-28T07:50:00;3.67;;;3.37;;
5125;SDS011;63008;53.112;8.896;2023-04-28T07:52:04;5.87;;;3.90;;
5125;SDS011;63008;53.112;8.896;2023-04-28T07:54:05;8.80;;;4.17;;
5125;SDS011;63008;53.112;8.896;2023-04-28T07:56:06;4.93;;;4.27;;
5125;SDS011;63008;53.112;8.896;2023-04-28T07:58:07;4.30;;;3.90;;
5125;SDS011;63008;53.112;8.896;2023-04-28T08:00:08;4.10;;;3.80;;
5125;SDS011;63008;53.112;8.896;2023-04-28T08:02:11;10.60;;;3.83;;
5125;SDS011;63008;53.112;8.896;2023-04-28T08:04:15;7.20;;;4.23;;
5125;SDS011;63008;53.112;8.896;2023-04-28T08:06:16;7.90;;;4.50;;
5125;SDS011;63008;53.112;8.896;2023-04-28T08:08:17;7.83;;;4.07;;
5125;SDS011;63008;53.112;8.896;2023-04-28T08:10:18;6.13;;;3.97;;
5125;SDS011;63008;53.112;8.896;2023-04-28T08:12:19;12.47;;;4.43;;
5125;SDS011;63008;53.112;8.896;2023-04-28T08:14:21;4.60;;;4.17;;
5125;SDS011;63008;53.112;8.896;2023-04-28T08:16:22;6.23;;;4.20;;
5125;SDS011;63008;53.112;8.896;2023-04-28T08:18:23;6.83;;;4.03;;
5125;SDS011;63008;53.112;8.896;2023-04-28T08:20:24;11.03;;;4.50;;
5125;SDS011;63008;53.112;8.896;2023-04-28T08:22:25;5.37;;;3.27;;
5125;SDS011;63008;53.112;8.896;2023-04-28T08:24:26;6.97;;;4.30;;
5125;SDS011;63008;53.112;8.896;2023-04-28T08:26:29;9.00;;;4.53;;
5125;SDS011;63008;53.112;8.896;2023-04-28T08:28:31;6.03;;;4.50;;
5125;SDS011;63008;53.112;8.896;2023-04-28T08:30:33;11.43;;;5.20;;
5125;SDS011;63008;53.112;8.896;2023-04-28T08:32:34;6.30;;;4.53;;
5125;SDS011;63008;53.112;8.896;2023-04-28T08:34:35;4.70;;;3.87;;
5125;SDS011;63008;53.112;8.896;2023-04-28T08:36:36;6.43;;;4.00;;
5125;SDS011;63008;53.112;8.896;2023-04-28T08:38:37;6.43;;;4.40;;
5125;SDS011;63008;53.112;8.896;2023-04-28T08:40:39;4.53;;;3.80;;
5125;SDS011;63008;53.112;8.896;2023-04-28T08:42:42;7.80;;;4.70;;
5125;SDS011;63008;53.112;8.896;2023-04-28T08:44:45;6.10;;;4.43;;
5125;SDS011;63008;53.112;8.896;2023-04-28T08:46:47;6.23;;;5.27;;
5125;SDS011;63008;53.112;8.896;2023-04-28T08:48:49;5.90;;;4.80;;
5125;SDS011;63008;53.112;8.896;2023-04-28T08:50:52;11.60;;;4.70;;
5125;SDS011;63008;53.112;8.896;2023-04-28T08:52:59;8.33;;;5.40;;
5125;SDS011;63008;53.112;8.896;2023-04-28T08:55:05;10.03;;;4.50;;
5125;SDS011;63008;53.112;8.896;2023-04-28T08:57:10;10.07;;;5.60;;
5125;SDS011;63008;53.112;8.896;2023-04-28T08:59:11;11.93;;;5.37;;
5125;SDS011;63008;53.112;8.896;2023-04-28T09:01:12;16.00;;;5.10;;
5125;SDS011;63008;53.112;8.896;2023-04-28T09:03:13;8.03;;;4.77;;
5125;SDS011;63008;53.112;8.896;2023-04-28T09:05:14;5.23;;;4.80;;
5125;SDS011;63008;53.112;8.896;2023-04-28T09:07:15;8.03;;;4.20;;
5125;SDS011;63008;53.112;8.896;2023-04-28T09:09:29;9.33;;;4.97;;
5125;SDS011;63008;53.112;8.896;2023-04-28T09:11:30;8.20;;;5.20;;
5125;SDS011;63008;53.112;8.896;2023-04-28T09:13:31;12.63;;;6.30;;
5125;SDS011;63008;53.112;8.896;2023-04-28T09:17:47;13.00;;;5.70;;
5125;SDS011;63008;53.112;8.896;2023-04-28T09:19:49;6.77;;;5.00;;
5125;SDS011;63008;53.112;8.896;2023-04-28T09:21:54;10.63;;;5.90;;
5125;SDS011;63008;53.112;8.896;2023-04-28T09:23:56;7.03;;;4.90;;
5125;SDS011;63008;53.112;8.896;2023-04-28T09:26:01;5.93;;;5.20;;
5125;SDS011;63008;53.112;8.896;2023-04-28T09:28:19;11.57;;;5.80;;
5125;SDS011;63008;53.112;8.896;2023-04-28T09:30:36;9.00;;;6.30;;
5125;SDS011;63008;53.112;8.896;2023-04-28T09:32:40;8.77;;;6.03;;
5125;SDS011;63008;53.112;8.896;2023-04-28T09:34:42;6.17;;;5.40;;
5125;SDS011;63008;53.112;8.896;2023-04-28T09:36:47;5.80;;;4.83;;
5125;SDS011;63008;53.112;8.896;2023-04-28T09:38:48;12.40;;;5.57;;
5125;SDS011;63008;53.112;8.896;2023-04-28T09:43:00;13.13;;;5.80;;
5125;SDS011;63008;53.112;8.896;2023-04-28T09:45:04;10.73;;;5.30;;
5125;SDS011;63008;53.112;8.896;2023-04-28T09:47:25;9.80;;;5.37;;
5125;SDS011;63008;53.112;8.896;2023-04-28T09:49:26;6.13;;;5.40;;
5125;SDS011;63008;53.112;8.896;2023-04-28T09:51:27;9.00;;;6.17;;
5125;SDS011;63008;53.112;8.896;2023-04-28T09:53:28;10.87;;;5.67;;
5125;SDS011;63008;53.112;8.896;2023-04-28T09:55:29;10.00;;;6.37;;
5125;SDS011;63008;53.112;8.896;2023-04-28T09:57:35;7.83;;;5.50;;
5125;SDS011;63008;53.112;8.896;2023-04-28T09:59:39;7.13;;;5.47;;
5125;SDS011;63008;53.112;8.896;2023-04-28T10:01:40;9.40;;;5.77;;
5125;SDS011;63008;53.112;8.896;2023-04-28T10:03:43;5.70;;;5.17;;
5125;SDS011;63008;53.112;8.896;2023-04-28T10:05:45;8.57;;;5.93;;
5125;SDS011;63008;53.112;8.896;2023-04-28T10:07:47;12.20;;;6.40;;
5125;SDS011;63008;53.112;8.896;2023-04-28T10:09:48;11.13;;;5.70;;
5125;SDS011;63008;53.112;8.896;2023-04-28T10:11:50;9.70;;;5.90;;
5125;SDS011;63008;53.112;8.896;2023-04-28T10:13:52;9.30;;;6.13;;
5125;SDS011;63008;53.112;8.896;2023-04-28T10:15:53;6.73;;;5.60;;
5125;SDS011;63008;53.112;8.896;2023-04-28T10:17:54;10.73;;;6.27;;
5125;SDS011;63008;53.112;8.896;2023-04-28T10:19:56;11.77;;;6.33;;
5125;SDS011;63008;53.112;8.896;2023-04-28T10:22:05;9.10;;;6.10;;
5125;SDS011;63008;53.112;8.896;2023-04-28T10:24:17;10.53;;;6.07;;
5125;SDS011;63008;53.112;8.896;2023-04-28T10:26:34;14.23;;;6.87;;
5125;SDS011;63008;53.112;8.896;2023-04-28T10:28:48;6.47;;;5.70;;
5125;SDS011;63008;53.112;8.896;2023-04-28T10:31:10;10.30;;;6.23;;
5125;SDS011;63008;53.112;8.896;2023-04-28T10:37:52;12.57;;;6.83;;
5125;SDS011;63008;53.112;8.896;2023-04-28T10:42:50;12.33;;;6.23;;
5125;SDS011;63008;53.112;8.896;2023-04-28T10:44:52;9.57;;;6.50;;
5125;SDS011;63008;53.112;8.896;2023-04-28T10:47:02;11.47;;;5.97;;
5125;SDS011;63008;53.112;8.896;2023-04-28T10:49:08;7.10;;;6.10;;
5125;SDS011;63008;53.112;8.896;2023-04-28T10:53:12;15.77;;;6.90;;
5125;SDS011;63008;53.112;8.896;2023-04-28T10:55:26;7.40;;;6.30;;
5125;SDS011;63008;53.112;8.896;2023-04-28T10:57:32;12.17;;;6.60;;
5125;SDS011;63008;53.112;8.896;2023-04-28T10:59:33;13.13;;;6.70;;
5125;SDS011;63008;53.112;8.896;2023-04-28T11:01:35;10.80;;;6.87;;
5125;SDS011;63008;53.112;8.896;2023-04-28T11:08:33;13.13;;;7.33;;
5125;SDS011;63008;53.112;8.896;2023-04-28T11:13:28;9.83;;;7.00;;
5125;SDS011;63008;53.112;8.896;2023-04-28T11:15:33;12.33;;;6.90;;
5125;SDS011;63008;53.112;8.896;2023-04-28T11:17:38;8.97;;;7.23;;
5125;SDS011;63008;53.112;8.896;2023-04-28T11:19:41;11.47;;;6.80;;
5125;SDS011;63008;53.112;8.896;2023-04-28T11:21:44;25.37;;;7.83;;
5125;SDS011;63008;53.112;8.896;2023-04-28T11:23:50;9.43;;;6.70;;
5125;SDS011;63008;53.112;8.896;2023-04-28T11:25:57;13.77;;;7.27;;
5125;SDS011;63008;53.112;8.896;2023-04-28T11:28:04;9.23;;;7.07;;
5125;SDS011;63008;53.112;8.896;2023-04-28T11:30:19;8.40;;;6.27;;
5125;SDS011;63008;53.112;8.896;2023-04-28T11:32:26;10.13;;;6.70;;
5125;SDS011;63008;53.112;8.896;2023-04-28T11:34:29;10.30;;;7.00;;
5125;SDS011;63008;53.112;8.896;2023-04-28T11:36:31;10.23;;;6.73;;
5125;SDS011;63008;53.112;8.896;2023-04-28T11:38:43;12.20;;;6.43;;
5125;SDS011;63008;53.112;8.896;2023-04-28T11:40:57;8.97;;;6.80;;
5125;SDS011;63008;53.112;8.896;2023-04-28T11:43:01;13.03;;;6.90;;
5125;SDS011;63008;53.112;8.896;2023-04-28T11:45:03;10.37;;;7.03;;
5125;SDS011;63008;53.112;8.896;2023-04-28T11:47:05;14.60;;;7.57;;
5125;SDS011;63008;53.112;8.896;2023-04-28T11:49:06;9.23;;;7.17;;
5125;SDS011;63008;53.112;8.896;2023-04-28T11:51:07;13.63;;;7.03;;
5125;SDS011;63008;53.112;8.896;2023-04-28T11:53:08;15.13;;;7.50;;
5125;SDS011;63008;53.112;8.896;2023-04-28T11:55:12;12.70;;;7.37;;
5125;SDS011;63008;53.112;8.896;2023-04-28T11:57:16;10.17;;;7.17;;
5125;SDS011;63008;53.112;8.896;2023-04-28T11:59:22;14.43;;;7.27;;
5125;SDS011;63008;53.112;8.896;2023-04-28T12:01:24;9.43;;;7.00;;
5125;SDS011;63008;53.112;8.896;2023-04-28T12:03:25;18.20;;;8.13;;
5125;SDS011;63008;53.112;8.896;2023-04-28T12:05:26;8.30;;;6.90;;
5125;SDS011;63008;53.112;8.896;2023-04-28T12:07:27;20.07;;;7.20;;
5125;SDS011;63008;53.112;8.896;2023-04-28T12:09:28;17.00;;;7.13;;
5125;SDS011;63008;53.112;8.896;2023-04-28T12:11:29;12.80;;;7.70;;
5125;SDS011;63008;53.112;8.896;2023-04-28T12:13:30;11.20;;;6.97;;
5125;SDS011;63008;53.112;8.896;2023-04-28T12:15:38;10.93;;;7.03;;
5125;SDS011;63008;53.112;8.896;2023-04-28T12:17:40;8.70;;;6.20;;
5125;SDS011;63008;53.112;8.896;2023-04-28T12:19:42;11.57;;;8.20;;
5125;SDS011;63008;53.112;8.896;2023-04-28T12:22:03;8.80;;;7.20;;
5125;SDS011;63008;53.112;8.896;2023-04-28T12:26:25;11.80;;;6.97;;
5125;SDS011;63008;53.112;8.896;2023-04-28T12:28:39;11.73;;;7.13;;
5125;SDS011;63008;53.112;8.896;2023-04-28T12:30:41;11.87;;;6.70;;
5125;SDS011;63008;53.112;8.896;2023-04-28T12:32:42;9.00;;;7.10;;
5125;SDS011;63008;53.112;8.896;2023-04-28T12:34:44;10.77;;;6.70;;
5125;SDS011;63008;53.112;8.896;2023-04-28T12:36:46;15.13;;;7.23;;
5125;SDS011;63008;53.112;8.896;2023-04-28T12:38:47;17.57;;;8.00;;
5125;SDS011;63008;53.112;8.896;2023-04-28T12:40:49;17.27;;;7.40;;